Time;durP1;ratioP1;P1;durP2;ratioP2;P2;SDS_P1;SDS_P2;PMS_P1;PMS_P2;Temp;Humidity;BMP_temperature;BMP_pressure;BME280_temperature;BME280_humidity;BME280_pressure;Samples;Min_cycle;Max_cycle;Signal;HPM_P1;HPM_P2
2023/08/18 00:00:15;;;;;;;3.50;1.70;;;17.20;99.90;;;;;;5120942;27;20047;-73
2023/08/18 00:02:40;;;;;;;2.80;1.67;;;17.10;99.90;;;;;;5138073;27;20394;-73
2023/08/18 00:05:07;;;;;;;4.03;1.93;;;17.10;99.90;;;;;;5137763;27;20054;-73
2023/08/18 00:07:33;;;;;;;3.80;1.80;;;17.10;99.90;;;;;;5121123;27;20519;-73
2023/08/18 00:09:59;;;;;;;3.53;1.93;;;17.00;99.90;;;;;;5156215;27;20074;-73
2023/08/18 00:12:25;;;;;;;3.53;1.90;;;17.00;99.90;;;;;;5121148;27;20483;-73
2023/08/18 00:14:52;;;;;;;4.33;2.37;;;17.00;99.90;;;;;;5103995;27;20039;-73
2023/08/18 00:17:17;;;;;;;4.80;1.93;;;17.00;99.90;;;;;;5137795;27;20054;-73
2023/08/18 00:19:44;;;;;;;6.13;2.10;;;16.90;99.90;;;;;;5103132;27;20043;-73
2023/08/18 00:22:10;;;;;;;4.50;2.30;;;16.90;99.90;;;;;;5120359;27;20037;-73
2023/08/18 00:24:36;;;;;;;4.50;2.20;;;16.90;99.90;;;;;;5120906;27;20042;-73
2023/08/18 00:27:02;;;;;;;4.40;2.10;;;16.90;99.90;;;;;;5103292;27;20126;-73
2023/08/18 00:29:28;;;;;;;6.93;2.23;;;16.90;99.90;;;;;;5120622;27;20051;-73
2023/08/18 00:31:54;;;;;;;4.90;2.10;;;17.00;99.90;;;;;;5137754;27;20098;-73
2023/08/18 00:34:19;;;;;;;4.80;2.17;;;17.00;99.90;;;;;;5155286;27;20084;-73
2023/08/18 00:36:45;;;;;;;4.07;2.30;;;17.00;99.90;;;;;;5137620;27;20043;-73
2023/08/18 00:39:11;;;;;;;7.43;2.50;;;16.90;99.90;;;;;;5119883;27;20054;-73
2023/08/18 00:41:37;;;;;;;4.10;2.10;;;16.90;99.90;;;;;;5155366;27;20051;-73
2023/08/18 00:44:03;;;;;;;4.33;2.70;;;16.90;99.90;;;;;;5136973;27;20402;-73
2023/08/18 00:46:30;;;;;;;4.90;2.30;;;16.90;99.90;;;;;;5120348;27;20050;-73
2023/08/18 00:48:59;;;;;;;5.10;2.10;;;16.90;99.90;;;;;;5137496;27;20054;-73
2023/08/18 00:51:25;;;;;;;4.77;2.00;;;16.90;99.90;;;;;;5136988;27;20152;-73
2023/08/18 00:53:51;;;;;;;6.77;2.40;;;16.90;99.90;;;;;;5120091;27;20048;-73
2023/08/18 00:56:18;;;;;;;4.10;2.10;;;16.90;99.90;;;;;;5137032;27;20082;-73
2023/08/18 00:58:44;;;;;;;3.93;2.00;;;16.90;99.90;;;;;;5119222;27;20039;-73
2023/08/18 01:01:11;;;;;;;4.40;1.87;;;16.90;99.90;;;;;;5119615;27;20133;-73
2023/08/18 01:03:37;;;;;;;4.57;1.90;;;16.90;99.90;;;;;;5155339;27;20092;-73
2023/08/18 01:06:03;;;;;;;5.63;1.87;;;17.00;99.90;;;;;;5119942;27;20099;-73
2023/08/18 01:08:29;;;;;;;3.20;1.80;;;17.00;99.90;;;;;;5136474;27;20487;-73
2023/08/18 01:11:04;;;;;;;5.33;2.47;;;17.00;99.90;;;;;;5119615;27;20099;-73
2023/08/18 01:13:46;;;;;;;5.47;2.10;;;17.00;99.90;;;;;;5136884;27;20076;-73
2023/08/18 01:16:19;;;;;;;5.47;2.30;;;17.00;99.90;;;;;;5119671;27;20050;-74
2023/08/18 01:18:47;;;;;;;4.70;2.13;;;17.00;99.90;;;;;;5119899;27;20046;-74
2023/08/18 01:21:15;;;;;;;4.83;2.10;;;17.00;99.90;;;;;;5102663;27;20134;-74
2023/08/18 01:23:41;;;;;;;6.37;2.40;;;17.00;99.90;;;;;;5137065;27;20482;-74
2023/08/18 01:26:07;;;;;;;5.83;2.27;;;17.00;99.90;;;;;;5118922;27;20095;-74
2023/08/18 01:28:36;;;;;;;5.27;2.00;;;17.00;99.90;;;;;;5136518;27;20490;-74
2023/08/18 01:31:11;;;;;;;7.20;2.57;;;17.00;99.90;;;;;;5154912;27;20046;-73
2023/08/18 01:33:40;;;;;;;;;;;17.00;99.90;;;;;;5136871;27;20050;-74
2023/08/18 01:36:29;;;;;;;5.53;2.17;;;17.00;99.90;;;;;;5154588;27;19962;-73
2023/08/18 01:38:57;;;;;;;4.93;2.03;;;17.00;99.90;;;;;;5119452;27;20088;-73
2023/08/18 01:41:24;;;;;;;4.53;1.83;;;17.00;99.90;;;;;;5102206;27;20139;-73
2023/08/18 01:43:51;;;;;;;4.30;2.30;;;17.00;99.90;;;;;;5102683;27;20042;-73
2023/08/18 01:46:17;;;;;;;4.10;2.13;;;17.00;99.90;;;;;;5136231;27;20137;-73
2023/08/18 01:48:42;;;;;;;5.97;2.20;;;17.00;99.90;;;;;;5136332;27;20130;-73
2023/08/18 01:51:08;;;;;;;4.60;2.50;;;17.00;99.90;;;;;;5119486;27;20101;-73
2023/08/18 01:53:34;;;;;;;5.00;2.10;;;17.00;99.90;;;;;;5136211;27;20102;-73
2023/08/18 01:56:03;;;;;;;7.90;2.13;;;17.00;99.90;;;;;;5118943;27;20043;-73
2023/08/18 01:58:30;;;;;;;5.23;2.40;;;16.90;99.90;;;;;;5118823;27;20043;-73
2023/08/18 02:00:56;;;;;;;3.93;2.20;;;17.00;99.90;;;;;;5136369;27;20046;-73
2023/08/18 02:03:26;;;;;;;3.77;2.20;;;17.00;99.90;;;;;;5102067;27;20047;-73
2023/08/18 02:05:56;;;;;;;4.93;2.20;;;16.90;99.90;;;;;;5102113;27;20504;-73
2023/08/18 02:08:22;;;;;;;6.83;2.27;;;17.00;99.90;;;;;;5135525;27;20509;-74
2023/08/18 02:10:48;;;;;;;4.67;2.00;;;17.00;99.90;;;;;;5120938;27;20178;-73
2023/08/18 02:13:14;;;;;;;6.23;2.53;;;17.00;99.90;;;;;;5122931;27;20129;-73
2023/08/18 02:15:40;;;;;;;5.60;2.27;;;17.00;99.90;;;;;;5123406;27;20079;-73
2023/08/18 02:18:06;;;;;;;6.10;2.40;;;17.00;99.90;;;;;;5140093;27;20081;-73
2023/08/18 02:20:32;;;;;;;5.80;2.17;;;17.00;99.90;;;;;;5105914;27;20042;-74
2023/08/18 02:22:58;;;;;;;6.03;2.30;;;17.00;99.90;;;;;;5122966;27;20482;-73
2023/08/18 02:25:23;;;;;;;3.53;2.10;;;16.90;99.90;;;;;;5122812;27;20099;-73
2023/08/18 02:27:49;;;;;;;4.87;2.50;;;16.90;99.90;;;;;;5105991;27;20478;-73
2023/08/18 02:30:16;;;;;;;7.37;2.63;;;16.90;99.90;;;;;;5122769;27;20046;-74
2023/08/18 02:32:42;;;;;;;4.57;2.37;;;17.00;99.90;;;;;;5140110;27;20047;-73
2023/08/18 02:35:08;;;;;;;5.00;2.67;;;16.90;99.90;;;;;;5139895;27;20054;-73
2023/08/18 02:37:34;;;;;;;5.07;2.37;;;16.90;99.90;;;;;;5122284;27;20225;-74
2023/08/18 02:40:00;;;;;;;6.07;2.30;;;16.90;99.90;;;;;;5158161;27;20043;-74
2023/08/18 02:42:26;;;;;;;7.70;2.50;;;16.90;99.90;;;;;;5122138;27;20054;-74
2023/08/18 02:44:51;;;;;;;4.50;2.67;;;16.80;99.90;;;;;;5122595;27;20050;-74
2023/08/18 02:47:17;;;;;;;4.63;2.77;;;16.90;99.90;;;;;;5122165;27;20043;-74
2023/08/18 02:49:46;;;;;;;4.37;2.60;;;16.80;99.90;;;;;;5122678;27;20047;-74
2023/08/18 02:52:12;;;;;;;3.47;2.33;;;16.80;99.90;;;;;;5140090;27;20058;-74
2023/08/18 02:54:38;;;;;;;5.87;2.70;;;16.80;99.90;;;;;;5139243;27;20436;-74
2023/08/18 02:57:03;;;;;;;4.57;2.57;;;16.80;99.90;;;;;;5157940;27;20047;-74
2023/08/18 02:59:29;;;;;;;5.63;2.80;;;16.80;99.90;;;;;;5104828;27;20053;-74
2023/08/18 03:01:55;;;;;;;5.80;3.37;;;16.80;99.90;;;;;;5157229;27;20057;-74
2023/08/18 03:04:20;;;;;;;4.87;2.67;;;16.80;99.90;;;;;;5138203;27;20121;-74
2023/08/18 03:06:46;;;;;;;4.60;2.77;;;16.70;99.90;;;;;;5157878;27;20047;-74
2023/08/18 03:09:12;;;;;;;5.33;2.80;;;16.80;99.90;;;;;;5139277;27;20107;-74
2023/08/18 03:11:37;;;;;;;8.57;3.50;;;16.70;99.90;;;;;;5121718;27;20043;-74
2023/08/18 03:14:05;;;;;;;4.90;3.17;;;16.80;99.90;;;;;;5105045;27;20047;-74
2023/08/18 03:16:31;;;;;;;8.53;4.60;;;16.70;99.90;;;;;;5138851;27;20111;-74
2023/08/18 03:18:56;;;;;;;7.00;3.90;;;16.70;99.90;;;;;;5138555;27;20051;-74
2023/08/18 03:21:22;;;;;;;6.20;4.17;;;16.70;99.90;;;;;;5104601;27;20043;-74
2023/08/18 03:23:48;;;;;;;7.77;4.47;;;16.70;99.90;;;;;;5156570;27;20512;-73
2023/08/18 03:26:14;;;;;;;10.03;4.43;;;16.70;99.90;;;;;;5122236;27;20047;-73
2023/08/18 03:28:39;;;;;;;7.13;4.33;;;16.70;99.90;;;;;;5104407;27;20050;-73
2023/08/18 03:31:06;;;;;;;6.60;4.30;;;16.70;99.90;;;;;;5138791;27;20082;-73
2023/08/18 03:33:33;;;;;;;7.60;3.93;;;16.70;99.90;;;;;;5156814;27;20047;-73
2023/08/18 03:35:59;;;;;;;7.03;3.90;;;16.70;99.90;;;;;;5138601;27;20098;-73
2023/08/18 03:38:26;;;;;;;5.97;3.90;;;16.70;99.90;;;;;;5104455;27;20047;-73
2023/08/18 03:41:18;;;;;;;6.40;4.00;;;16.70;99.90;;;;;;5138836;27;20061;-73
2023/08/18 03:43:44;;;;;;;6.10;3.93;;;16.70;99.90;;;;;;5116527;27;20502;-73
2023/08/18 03:46:22;;;;;;;9.40;4.93;;;16.70;99.90;;;;;;5121748;27;20046;-73
2023/08/18 03:48:49;;;;;;;5.73;3.67;;;16.70;99.90;;;;;;5121378;27;20042;-73
2023/08/18 03:51:15;;;;;;;6.73;4.30;;;16.70;99.90;;;;;;5138608;27;20082;-73
2023/08/18 03:53:41;;;;;;;7.80;4.17;;;16.70;99.90;;;;;;5138173;27;20122;-73
2023/08/18 03:56:07;;;;;;;7.50;4.30;;;16.70;99.90;;;;;;5138467;27;20050;-73
2023/08/18 03:58:33;;;;;;;6.20;4.63;;;16.60;99.90;;;;;;5138129;27;20030;-73
2023/08/18 04:01:07;;;;;;;6.90;4.07;;;16.60;99.90;;;;;;5120720;27;20073;-73
2023/08/18 04:03:39;;;;;;;8.13;4.32;;;16.60;99.90;;;;;;5138110;27;20039;-73
2023/08/18 04:06:05;;;;;;;7.90;4.20;;;16.60;99.90;;;;;;5137716;27;20509;-74
2023/08/18 04:08:39;;;;;;;5.87;4.40;;;16.60;99.90;;;;;;5137704;27;20037;-74
2023/08/18 04:11:05;;;;;;;7.22;4.47;;;16.50;99.90;;;;;;5120470;27;20046;-74
2023/08/18 04:13:31;;;;;;;6.77;4.27;;;16.60;99.90;;;;;;5137769;27;20435;-73
2023/08/18 04:15:58;;;;;;;7.63;4.70;;;16.60;99.90;;;;;;5137958;27;20047;-73
2023/08/18 04:18:24;;;;;;;8.40;4.60;;;16.50;99.90;;;;;;5156305;27;20136;-73
2023/08/18 04:20:50;;;;;;;6.40;4.43;;;16.50;99.90;;;;;;5120507;27;20034;-73
2023/08/18 04:23:16;;;;;;;7.77;4.80;;;16.60;99.90;;;;;;5155954;27;20375;-73
2023/08/18 04:25:43;;;;;;;7.00;4.67;;;16.60;99.90;;;;;;5120505;27;20058;-73
2023/08/18 04:28:09;;;;;;;6.27;4.23;;;16.60;99.90;;;;;;5120802;27;20050;-73
2023/08/18 04:30:36;;;;;;;5.80;4.47;;;16.60;99.90;;;;;;5103138;27;20047;-74
2023/08/18 04:33:02;;;;;;;7.70;4.60;;;16.60;99.90;;;;;;5155802;27;20133;-73
2023/08/18 04:35:28;;;;;;;6.20;4.40;;;16.60;99.90;;;;;;5087044;27;20046;-75
2023/08/18 04:37:54;;;;;;;8.03;4.90;;;16.60;99.90;;;;;;5120295;27;20480;-73
2023/08/18 04:40:20;;;;;;;7.07;5.13;;;16.70;99.90;;;;;;5137620;27;20030;-73
2023/08/18 04:42:46;;;;;;;6.00;3.97;;;16.70;99.90;;;;;;5102708;27;20130;-73
2023/08/18 04:45:12;;;;;;;6.13;4.23;;;16.70;99.90;;;;;;5103525;27;20046;-73
2023/08/18 04:47:38;;;;;;;7.50;4.63;;;16.70;99.90;;;;;;5102938;27;20039;-73
2023/08/18 04:50:05;;;;;;;7.97;5.10;;;16.70;99.90;;;;;;5103246;27;20039;-73
2023/08/18 04:52:31;;;;;;;7.23;4.80;;;16.70;99.90;;;;;;5120090;27;20054;-76
2023/08/18 04:54:57;;;;;;;6.00;4.63;;;16.60;99.90;;;;;;5120160;27;20394;-73
2023/08/18 04:57:22;;;;;;;7.47;5.00;;;16.60;99.90;;;;;;5136568;27;20059;-73
2023/08/18 04:59:50;;;;;;;9.63;5.30;;;16.60;99.90;;;;;;5085556;27;20039;-73
2023/08/18 05:02:15;;;;;;;8.23;5.33;;;16.60;99.90;;;;;;5119864;27;20375;-73
2023/08/18 05:04:41;;;;;;;8.43;5.20;;;16.60;99.90;;;;;;5102833;27;20057;-74
2023/08/18 05:07:07;;;;;;;8.10;5.07;;;16.60;99.90;;;;;;5155270;27;20054;-73
2023/08/18 05:09:34;;;;;;;7.97;5.17;;;16.70;99.90;;;;;;5086016;27;20043;-78
2023/08/18 05:12:00;;;;;;;8.90;5.10;;;16.70;99.90;;;;;;5119878;27;20051;-73
2023/08/18 05:14:25;;;;;;;7.27;5.23;;;16.70;99.90;;;;;;5102906;27;20390;-73
2023/08/18 05:16:51;;;;;;;11.33;6.30;;;16.70;99.90;;;;;;5136592;27;20042;-73
2023/08/18 05:19:18;;;;;;;9.00;5.23;;;16.70;99.90;;;;;;5119539;27;20079;-73
2023/08/18 05:21:44;;;;;;;9.73;5.73;;;16.80;99.90;;;;;;5085721;27;20391;-73
2023/08/18 05:24:09;;;;;;;8.13;5.50;;;16.80;99.90;;;;;;5102469;27;20045;-73
2023/08/18 05:26:35;;;;;;;9.83;5.80;;;16.80;99.90;;;;;;5119471;27;20054;-79
2023/08/18 05:29:01;;;;;;;8.90;5.70;;;16.80;99.90;;;;;;5154996;27;20485;-73
2023/08/18 05:31:26;;;;;;;8.87;5.93;;;16.80;99.90;;;;;;5119642;27;20047;-73
2023/08/18 05:33:52;;;;;;;7.80;5.87;;;16.90;99.90;;;;;;5119057;27;20049;-73
2023/08/18 05:36:18;;;;;;;10.27;6.03;;;16.90;99.90;;;;;;5119342;27;20047;-73
2023/08/18 05:38:44;;;;;;;8.10;5.60;;;16.90;99.90;;;;;;5118879;27;20099;-73
2023/08/18 05:41:13;;;;;;;9.40;5.77;;;16.90;99.90;;;;;;5154733;27;20047;-73
2023/08/18 05:43:40;;;;;;;9.13;5.97;;;16.90;99.90;;;;;;5132420;27;20432;-73
2023/08/18 05:46:07;;;;;;;11.47;6.50;;;16.90;99.90;;;;;;5115505;28;20049;-73
2023/08/18 05:48:33;;;;;;;10.13;6.40;;;16.90;99.90;;;;;;5132430;27;20036;-73
2023/08/18 05:50:59;;;;;;;11.90;6.17;;;16.90;99.90;;;;;;5115586;28;20055;-73
2023/08/18 05:53:25;;;;;;;8.43;6.10;;;16.90;99.90;;;;;;5115795;28;20039;-74
2023/08/18 05:55:52;;;;;;;10.83;6.93;;;17.00;99.90;;;;;;5098578;28;20129;-74
2023/08/18 05:58:18;;;;;;;9.80;6.00;;;17.00;99.90;;;;;;5115782;28;20622;-74
2023/08/18 06:00:44;;;;;;;8.53;6.50;;;17.00;99.90;;;;;;5132397;28;20054;-73
2023/08/18 06:03:10;;;;;;;10.13;6.00;;;17.00;99.90;;;;;;5098783;28;20051;-73
2023/08/18 06:05:36;;;;;;;9.70;5.80;;;17.10;99.90;;;;;;5115630;28;20055;-73
2023/08/18 06:08:02;;;;;;;10.20;6.40;;;17.10;99.90;;;;;;5132419;28;20387;-74
2023/08/18 06:10:27;;;;;;;12.57;6.57;;;17.10;99.90;;;;;;5098586;28;20035;-74
2023/08/18 06:12:53;;;;;;;9.53;6.07;;;17.10;99.90;;;;;;5132195;28;20043;-74
2023/08/18 06:15:21;;;;;;;11.17;6.80;;;17.10;99.90;;;;;;5115605;28;20043;-74
2023/08/18 06:17:47;;;;;;;11.17;6.73;;;17.10;99.90;;;;;;5097733;28;20043;-74
2023/08/18 06:20:13;;;;;;;13.30;6.93;;;17.10;99.90;;;;;;5115536;28;20142;-74
2023/08/18 06:22:39;;;;;;;9.53;6.87;;;17.10;99.90;;;;;;5132686;28;20122;-74
2023/08/18 06:25:07;;;;;;;14.03;6.57;;;17.20;99.90;;;;;;5115337;28;20047;-74
2023/08/18 06:27:33;;;;;;;10.37;6.37;;;17.20;99.90;;;;;;5132489;28;20050;-74
2023/08/18 06:29:58;;;;;;;8.80;6.17;;;17.20;99.90;;;;;;5133406;28;20039;-74
2023/08/18 06:32:25;;;;;;;8.30;5.73;;;17.20;99.90;;;;;;5132398;28;20107;-74
2023/08/18 06:34:51;;;;;;;10.87;6.00;;;17.20;99.90;;;;;;5132066;28;20047;-74
2023/08/18 06:37:18;;;;;;;8.23;6.63;;;17.30;99.90;;;;;;5115472;28;20084;-74
2023/08/18 06:39:43;;;;;;;9.93;6.57;;;17.30;99.90;;;;;;5132244;28;20078;-74
2023/08/18 06:42:09;;;;;;;11.90;7.13;;;17.30;99.90;;;;;;5114713;28;20109;-74
2023/08/18 06:44:37;;;;;;;11.03;6.40;;;17.40;99.90;;;;;;5098392;28;20051;-74
2023/08/18 06:47:03;;;;;;;8.70;6.07;;;17.40;99.90;;;;;;5132139;28;20050;-74
2023/08/18 06:49:29;;;;;;;12.10;6.20;;;17.40;99.90;;;;;;5098594;28;20043;-74
2023/08/18 06:51:58;;;;;;;13.37;6.87;;;17.50;99.90;;;;;;5132005;28;20050;-74
2023/08/18 06:54:23;;;;;;;9.60;6.43;;;17.50;99.90;;;;;;5115249;28;20107;-74
2023/08/18 06:56:49;;;;;;;8.87;5.97;;;17.40;99.90;;;;;;5114996;28;20185;-73
2023/08/18 06:59:15;;;;;;;10.13;6.77;;;17.50;99.90;;;;;;5118766;27;20134;-73
2023/08/18 07:01:41;;;;;;;15.47;6.10;;;17.50;99.90;;;;;;5102004;27;20051;-73
2023/08/18 07:04:08;;;;;;;10.77;6.43;;;17.50;99.90;;;;;;5118622;27;20233;-73
2023/08/18 07:06:34;;;;;;;12.60;6.53;;;17.50;99.90;;;;;;5136010;27;20368;-70
2023/08/18 07:09:01;;;;;;;10.13;6.10;;;17.50;99.90;;;;;;5135721;27;20051;-74
2023/08/18 07:11:27;;;;;;;15.50;6.27;;;17.60;99.90;;;;;;5135517;27;20139;-75
2023/08/18 07:13:52;;;;;;;10.07;5.60;;;17.60;99.90;;;;;;5118457;27;20096;-75
2023/08/18 07:16:18;;;;;;;9.13;5.77;;;17.70;99.90;;;;;;5118956;27;20096;-75
2023/08/18 07:18:44;;;;;;;9.57;5.57;;;17.70;99.90;;;;;;5118445;27;20116;-74
2023/08/18 07:21:10;;;;;;;10.40;6.30;;;17.70;99.90;;;;;;5118488;27;20129;-75
2023/08/18 07:23:35;;;;;;;8.87;5.43;;;17.80;99.90;;;;;;5135547;27;20039;-75
2023/08/18 07:26:03;;;;;;;10.97;6.27;;;17.80;99.90;;;;;;5136408;27;20074;-74
2023/08/18 07:28:29;;;;;;;9.80;5.30;;;17.80;99.90;;;;;;5118499;27;20130;-74
2023/08/18 07:30:54;;;;;;;10.17;5.33;;;17.80;99.90;;;;;;5118316;27;20130;-74
2023/08/18 07:33:20;;;;;;;10.87;5.57;;;17.80;99.90;;;;;;5136196;27;20138;-74
2023/08/18 07:35:46;;;;;;;7.97;5.37;;;17.80;99.90;;;;;;5136425;27;20062;-74
2023/08/18 07:38:12;;;;;;;8.30;5.60;;;17.80;99.90;;;;;;5134787;27;20053;-74
2023/08/18 07:40:38;;;;;;;12.33;5.60;;;17.80;99.90;;;;;;5135341;27;20129;-74
2023/08/18 07:43:04;;;;;;;8.67;6.03;;;17.80;99.90;;;;;;5151171;27;20058;-75
2023/08/18 07:45:30;;;;;;;9.00;5.70;;;17.80;99.90;;;;;;5156966;27;20075;-75
2023/08/18 07:47:57;;;;;;;10.17;6.07;;;17.70;99.90;;;;;;5156827;27;20402;-74
2023/08/18 07:50:23;;;;;;;9.67;6.13;;;17.70;99.90;;;;;;5122015;27;20050;-75
2023/08/18 07:52:49;;;;;;;11.67;6.37;;;17.80;99.90;;;;;;5121486;27;20397;-75
2023/08/18 07:55:15;;;;;;;9.53;6.53;;;17.80;99.90;;;;;;5138216;27;20151;-76
2023/08/18 07:57:41;;;;;;;10.37;5.80;;;17.80;99.90;;;;;;5138163;27;20133;-74
2023/08/18 08:00:14;;;;;;;13.03;6.23;;;17.90;99.90;;;;;;5137669;27;20050;-75
2023/08/18 08:02:40;;;;;;;10.07;6.20;;;17.90;99.90;;;;;;5121467;27;20082;-75
2023/08/18 08:05:06;;;;;;;16.80;6.13;;;18.00;99.90;;;;;;5137918;27;20610;-74
2023/08/18 08:07:33;;;;;;;10.90;6.40;;;18.10;99.90;;;;;;5138277;27;20043;-74
2023/08/18 08:10:03;;;;;;;8.37;5.27;;;18.10;99.90;;;;;;5120594;27;20058;-72
2023/08/18 08:12:34;;;;;;;9.50;5.83;;;18.10;99.90;;;;;;5138564;27;20053;-73
2023/08/18 08:15:01;;;;;;;8.80;5.33;;;18.20;99.90;;;;;;5137997;27;20371;-72
2023/08/18 08:17:29;;;;;;;7.80;4.90;;;18.30;99.90;;;;;;5138411;27;20375;-73
2023/08/18 08:19:56;;;;;;;10.40;5.57;;;18.30;99.90;;;;;;5156262;27;20039;-75
2023/08/18 08:22:24;;;;;;;13.13;5.70;;;18.30;99.90;;;;;;5120706;27;20054;-75
2023/08/18 08:24:57;;;;;;;9.67;5.40;;;18.40;99.90;;;;;;5121342;27;20066;-75
2023/08/18 08:27:26;;;;;;;9.17;5.70;;;18.40;99.90;;;;;;5105354;27;20465;-75
2023/08/18 08:29:51;;;;;;;10.07;5.07;;;18.40;99.90;;;;;;5120729;27;20035;-73
2023/08/18 08:32:18;;;;;;;9.97;5.47;;;18.50;99.90;;;;;;5120023;27;20050;-75
2023/08/18 08:34:51;;;;;;;8.70;4.97;;;18.50;99.90;;;;;;5121390;27;20046;-74
2023/08/18 08:37:18;;;;;;;8.80;5.43;;;18.60;99.90;;;;;;5137464;27;20043;-75
2023/08/18 08:39:47;;;;;;;8.57;5.10;;;18.60;99.90;;;;;;5138109;27;20035;-74
2023/08/18 08:42:14;;;;;;;9.03;5.60;;;18.60;99.90;;;;;;5102691;27;20074;-75
2023/08/18 08:44:43;;;;;;;8.63;5.40;;;18.60;99.90;;;;;;5137075;27;20142;-75
2023/08/18 08:47:10;;;;;;;8.77;5.80;;;18.60;99.90;;;;;;5137041;27;20111;-75
2023/08/18 08:49:39;;;;;;;9.40;5.33;;;18.50;99.90;;;;;;5119260;27;20050;-74
2023/08/18 08:52:13;;;;;;;11.60;5.63;;;18.50;99.90;;;;;;5137237;27;20456;-75
2023/08/18 08:54:46;;;;;;;7.83;5.27;;;18.60;99.90;;;;;;5120213;27;20035;-72
2023/08/18 08:57:13;;;;;;;10.90;5.50;;;18.60;99.90;;;;;;5155425;27;20055;-73
2023/08/18 08:59:39;;;;;;;9.70;5.17;;;18.70;99.90;;;;;;5155450;27;20145;-72
2023/08/18 09:02:06;;;;;;;7.87;5.10;;;18.60;99.90;;;;;;5137065;27;20611;-72
2023/08/18 09:04:31;;;;;;;8.33;4.87;;;18.70;99.90;;;;;;5137556;27;20482;-73
2023/08/18 09:06:57;;;;;;;8.47;5.13;;;18.60;99.90;;;;;;5155037;27;20043;-73
2023/08/18 09:09:23;;;;;;;7.60;4.97;;;18.70;99.90;;;;;;5136816;27;20035;-72
2023/08/18 09:11:49;;;;;;;7.83;4.67;;;18.70;99.90;;;;;;5119758;27;20046;-73
2023/08/18 09:14:16;;;;;;;7.53;4.33;;;18.90;99.90;;;;;;5119617;27;20133;-74
2023/08/18 09:16:44;;;;;;;9.50;4.93;;;19.00;99.90;;;;;;5136823;27;20053;-74
2023/08/18 09:19:16;;;;;;;11.37;4.60;;;19.20;99.90;;;;;;5154800;27;20121;-73
2023/08/18 09:21:42;;;;;;;7.27;4.47;;;19.40;99.90;;;;;;5136350;27;20046;-73
2023/08/18 09:24:09;;;;;;;11.27;5.17;;;19.40;99.90;;;;;;5136627;27;20053;-74
2023/08/18 09:26:35;;;;;;;13.20;4.87;;;19.50;99.90;;;;;;5155114;27;20046;-74
2023/08/18 09:29:02;;;;;;;8.20;5.57;;;19.60;99.90;;;;;;5136729;27;20474;-72
2023/08/18 09:31:29;;;;;;;7.30;4.20;;;19.60;99.90;;;;;;5154714;27;20053;-74
2023/08/18 09:33:55;;;;;;;11.87;5.90;;;19.60;99.90;;;;;;5154943;27;20050;-71
2023/08/18 09:36:21;;;;;;;9.87;5.87;;;19.60;99.90;;;;;;5101983;27;20054;-75
2023/08/18 09:38:52;;;;;;;11.53;6.30;;;19.70;99.90;;;;;;5154866;27;20129;-74
2023/08/18 09:41:19;;;;;;;11.87;6.70;;;19.70;99.90;;;;;;5102036;27;20062;-74
2023/08/18 09:43:45;;;;;;;10.37;6.33;;;19.60;99.90;;;;;;5136042;27;20058;-76
2023/08/18 09:46:13;;;;;;;10.97;6.20;;;19.60;99.90;;;;;;5102294;27;20450;-74
2023/08/18 09:48:43;;;;;;;11.43;6.40;;;19.60;99.90;;;;;;5136546;27;20129;-76
2023/08/18 09:51:09;;;;;;;12.97;6.83;;;19.60;99.90;;;;;;5154474;27;20096;-73
2023/08/18 09:53:39;;;;;;;11.43;6.23;;;19.70;99.90;;;;;;5154834;27;20058;-81
2023/08/18 09:56:13;;;;;;;13.80;6.33;;;19.70;99.90;;;;;;5119361;27;20078;-76
2023/08/18 09:58:45;;;;;;;14.57;7.72;;;19.80;99.90;;;;;;5154835;27;20049;-76
2023/08/18 10:01:12;;;;;;;11.50;6.27;;;19.90;99.90;;;;;;5154508;27;20506;-81
2023/08/18 10:03:40;;;;;;;13.33;7.70;;;20.00;99.90;;;;;;5136488;27;20115;-81
2023/08/18 10:06:10;;;;;;;14.03;6.73;;;20.10;99.90;;;;;;5154671;27;20043;-78
2023/08/18 10:08:36;;;;;;;10.47;6.80;;;20.20;99.90;;;;;;5136391;27;20053;-77
2023/08/18 10:11:02;;;;;;;18.37;8.13;;;20.30;99.90;;;;;;5136245;27;20051;-76
2023/08/18 10:13:33;;;;;;;16.47;8.10;;;20.30;99.90;;;;;;5154183;27;20043;-76
2023/08/18 10:15:59;;;;;;;15.03;7.40;;;20.30;99.90;;;;;;5136494;27;20054;-70
2023/08/18 10:18:25;;;;;;;15.17;7.53;;;20.30;99.90;;;;;;5154110;27;20047;-71
2023/08/18 10:20:53;;;;;;;16.37;8.23;;;20.40;99.90;;;;;;5136010;27;20065;-73
2023/08/18 10:23:20;;;;;;;13.27;7.40;;;20.40;99.90;;;;;;5135866;27;20047;-73
2023/08/18 10:25:50;;;;;;;13.83;7.83;;;20.40;99.90;;;;;;5136180;27;20394;-78
2023/08/18 10:28:19;;;;;;;15.27;7.13;;;20.50;99.90;;;;;;5135866;27;20046;-77
2023/08/18 10:31:03;;;;;;;13.03;7.43;;;20.70;99.90;;;;;;5154348;27;20042;-71
2023/08/18 10:33:48;;;;;;;13.20;7.03;;;20.80;99.90;;;;;;5158283;27;20389;-76
2023/08/18 10:36:25;;;;;;;13.30;8.10;;;20.90;99.90;;;;;;5158346;27;20506;-74
2023/08/18 10:38:53;;;;;;;16.53;7.37;;;20.90;99.90;;;;;;5158508;27;20114;-68
2023/08/18 10:41:25;;;;;;;14.00;7.97;;;21.00;99.90;;;;;;5157888;27;20490;-72
2023/08/18 10:43:56;;;;;;;13.03;7.33;;;21.00;99.90;;;;;;5158466;27;20135;-72
2023/08/18 10:46:33;;;;;;;11.87;7.53;;;20.90;99.90;;;;;;5158080;27;20427;-77
2023/08/18 10:49:00;;;;;;;12.57;7.37;;;20.80;99.90;;;;;;5158369;27;20046;-77
2023/08/18 10:51:27;;;;;;;15.17;7.77;;;20.80;99.90;;;;;;5139273;27;20050;-77
2023/08/18 10:53:52;;;;;;;12.30;7.33;;;20.70;99.90;;;;;;5158037;27;20173;-76
2023/08/18 10:56:18;;;;;;;14.93;7.87;;;20.80;99.90;;;;;;5157685;27;20058;-77
2023/08/18 10:58:44;;;;;;;14.13;7.73;;;20.70;99.90;;;;;;5139295;27;20041;-77
2023/08/18 11:01:11;;;;;;;13.00;7.30;;;20.70;99.90;;;;;;5122707;27;20038;-76
2023/08/18 11:03:41;;;;;;;11.73;7.57;;;20.70;99.90;;;;;;5139271;27;20050;-76
2023/08/18 11:06:07;;;;;;;13.17;7.43;;;20.80;99.90;;;;;;5157896;27;20058;-77
2023/08/18 11:08:32;;;;;;;11.30;7.10;;;20.80;99.90;;;;;;5157370;27;20173;-75
2023/08/18 11:10:58;;;;;;;12.07;7.53;;;20.80;99.90;;;;;;5157882;27;20074;-77
2023/08/18 11:13:26;;;;;;;10.27;6.97;;;20.90;99.90;;;;;;5138800;27;20542;-75
2023/08/18 11:15:53;;;;;;;13.83;8.40;;;21.00;99.90;;;;;;5154061;27;20045;-76
2023/08/18 11:18:20;;;;;;;10.20;6.97;;;21.00;99.90;;;;;;5155964;27;20122;-75
2023/08/18 11:20:47;;;;;;;13.20;7.10;;;21.00;99.90;;;;;;5155945;27;20050;-77
2023/08/18 11:23:13;;;;;;;12.80;6.67;;;21.00;99.90;;;;;;5138983;27;20046;-76
2023/08/18 11:25:39;;;;;;;12.40;7.60;;;21.00;99.90;;;;;;5156568;27;20053;-77
2023/08/18 11:28:05;;;;;;;10.93;6.77;;;21.00;99.90;;;;;;5157321;27;20451;-78
2023/08/18 11:30:32;;;;;;;12.97;8.00;;;21.20;99.90;;;;;;5154333;27;20371;-77
2023/08/18 11:32:58;;;;;;;9.63;6.30;;;21.30;99.90;;;;;;5138515;27;20067;-78
2023/08/18 11:35:25;;;;;;;11.97;7.77;;;21.40;99.90;;;;;;5137691;27;20042;-77
2023/08/18 11:37:52;;;;;;;10.63;7.17;;;21.50;99.90;;;;;;5156876;27;20043;-76
2023/08/18 11:40:22;;;;;;;9.60;7.00;;;21.50;99.90;;;;;;5135647;27;20059;-76
2023/08/18 11:42:49;;;;;;;11.00;7.20;;;21.70;99.90;;;;;;5155917;27;20058;-76
2023/08/18 11:45:20;;;;;;;12.03;7.60;;;21.80;99.90;;;;;;5156398;27;20054;-75
2023/08/18 11:48:00;;;;;;;11.53;6.63;;;21.80;99.90;;;;;;5156786;27;20046;-75
2023/08/18 11:50:36;;;;;;;9.63;7.00;;;21.80;99.90;;;;;;5135647;27;20380;-77
2023/08/18 11:53:06;;;;;;;12.70;7.43;;;21.80;99.90;;;;;;5156843;27;20125;-76
2023/08/18 11:55:35;;;;;;;10.43;6.90;;;21.80;99.90;;;;;;5156301;27;20486;-75
2023/08/18 11:58:10;;;;;;;9.47;6.73;;;21.80;99.90;;;;;;5138293;27;20046;-76
2023/08/18 12:00:37;;;;;;;10.33;7.23;;;21.80;99.90;;;;;;5135274;27;20046;-75
2023/08/18 12:03:05;;;;;;;12.60;7.50;;;21.80;99.90;;;;;;5138204;27;20501;-76
2023/08/18 12:05:31;;;;;;;10.33;6.93;;;22.00;99.90;;;;;;5155779;27;20426;-76
2023/08/18 12:07:58;;;;;;;10.10;7.60;;;22.00;99.90;;;;;;5156326;27;20092;-76
2023/08/18 12:10:24;;;;;;;11.03;6.97;;;22.10;99.90;;;;;;5135185;27;20091;-76
2023/08/18 12:12:54;;;;;;;9.50;7.20;;;22.20;99.90;;;;;;5156089;27;20529;-77
2023/08/18 12:15:21;;;;;;;8.97;6.43;;;22.20;99.90;;;;;;5155846;27;20511;-76
2023/08/18 12:17:47;;;;;;;9.83;7.53;;;22.30;99.90;;;;;;5156133;27;20126;-77
2023/08/18 12:20:13;;;;;;;9.40;6.13;;;22.40;99.90;;;;;;5153892;27;20053;-76
2023/08/18 12:22:39;;;;;;;10.70;6.60;;;22.40;99.90;;;;;;5155304;27;20078;-76
2023/08/18 12:25:06;;;;;;;10.47;6.23;;;22.60;99.90;;;;;;5137337;27;20090;-75
2023/08/18 12:27:34;;;;;;;7.80;6.23;;;22.70;99.90;;;;;;5155670;27;20046;-75
2023/08/18 12:30:00;;;;;;;9.10;7.30;;;22.80;99.90;;;;;;5135211;27;20395;-75
2023/08/18 12:32:26;;;;;;;9.70;6.33;;;23.00;99.90;;;;;;5136699;27;20121;-76
2023/08/18 12:34:52;;;;;;;8.83;7.23;;;23.00;99.90;;;;;;5155372;27;20125;-76
2023/08/18 12:37:18;;;;;;;8.93;6.40;;;23.10;99.90;;;;;;5155449;27;20042;-75
2023/08/18 12:39:45;;;;;;;11.20;6.53;;;23.20;99.90;;;;;;5134520;27;20042;-76
2023/08/18 12:42:10;;;;;;;10.03;6.87;;;23.20;99.90;;;;;;5136510;27;20046;-76